Terminal Aerodrome Forecast
Issued by NWS Twin Cities, MN

Home | Current Version | Previous Version | Graphics & Text | Print | Product List | Glossary On
Versions: 1 2 3 4 5 6 7 8 9 10 11 12 13 14 15 16 17 18 19 20 21 22 23 24 25 26 27 28 29
957
FTUS43 KMPX 081137
TAFMSP
TAF
KMSP 081137Z 0812/0918 28005KT P6SM SCT018 BKN120
     FM081800 27008KT P6SM OVC016
     FM082300 28013G20KT 2SM -SHSN OVC012
     FM090200 31016G30KT P6SM VCSH OVC017
     FM090600 33012G22KT P6SM BKN025=

USA.gov is the U.S. government's official web portal to all federal, state and local government web resources and services.